CES7520 ZLDH-ZUUU
Flight info
| Callsign | CES7520 |
|---|---|
| Flight time | 1h 48m |
| Altitude | 36100 |
| Route | VIKUP1 VIKUP W191 DNC W565 BIGUX B330 MEXAD MEXAD6K |
| Aircraft | A339/H-SDE2E3FGILRWXY/LB2 |
Departure
| Time | 2026-05-05 12:24 |
|---|---|
| Airport | Dunhuang Mogao International Airport (ZLDH) |
Arrival
| Time | 2026-05-05 14:12 |
|---|---|
| Airport | Chengdu Shuangliu International Airport (ZUUU) |
| Time | Latitude | Longitude | Altitude | Speed | Heading |
|---|---|---|---|---|---|
| 2026-05-05 12:05 | 40.16483 | 94.80545 | 3718 ft | 0 kts | 354° |
| 2026-05-05 12:16 | 40.16489 | 94.80544 | 3717 ft | 0 kts | 354° |
| 2026-05-05 12:17 | 40.16487 | 94.80545 | 3717 ft | 2 kts | 354° |
| 2026-05-05 12:18 | 40.16472 | 94.80547 | 3718 ft | 2 kts | 354° |
| 2026-05-05 12:18 | 40.16457 | 94.80549 | 3719 ft | 2 kts | 354° |
| 2026-05-05 12:18 | 40.16442 | 94.80551 | 3720 ft | 2 kts | 354° |
| 2026-05-05 12:18 | 40.16427 | 94.80553 | 3720 ft | 2 kts | 354° |
| 2026-05-05 12:19 | 40.16412 | 94.80555 | 3721 ft | 2 kts | 5° |
| 2026-05-05 12:19 | 40.16398 | 94.80548 | 3722 ft | 2 kts | 47° |
| 2026-05-05 12:19 | 40.16391 | 94.80532 | 3723 ft | 0 kts | 81° |
| 2026-05-05 12:19 | 40.16391 | 94.80526 | 3723 ft | 0 kts | 83° |
| 2026-05-05 12:20 | 40.16391 | 94.80512 | 3722 ft | 6 kts | 268° |
| 2026-05-05 12:21 | 40.16388 | 94.80449 | 3723 ft | 7 kts | 265° |
| 2026-05-05 12:21 | 40.16383 | 94.80372 | 3721 ft | 9 kts | 264° |
| 2026-05-05 12:21 | 40.16365 | 94.80286 | 3721 ft | 9 kts | 231° |
| 2026-05-05 12:21 | 40.16316 | 94.80256 | 3724 ft | 5 kts | 187° |
| 2026-05-05 12:22 | 40.16286 | 94.80254 | 3726 ft | 2 kts | 179° |
| 2026-05-05 12:22 | 40.16243 | 94.80257 | 3728 ft | 11 kts | 176° |
| 2026-05-05 12:22 | 40.16098 | 94.79458 | 3732 ft | 0 kts | 79° |
| 2026-05-05 12:22 | 40.16087 | 94.79397 | 3733 ft | 0 kts | 281° |
| 2026-05-05 12:23 | 40.16087 | 94.79388 | 3733 ft | 1 kts | 274° |
| 2026-05-05 12:23 | 40.16084 | 94.79369 | 3733 ft | 2 kts | 246° |
| 2026-05-05 12:23 | 40.16072 | 94.79360 | 3733 ft | 1 kts | 179° |
| 2026-05-05 12:23 | 40.16058 | 94.79381 | 3734 ft | 4 kts | 111° |
| 2026-05-05 12:24 | 40.16063 | 94.79549 | 3734 ft | 52 kts | 83° |
| 2026-05-05 12:24 | 40.16148 | 94.80383 | 3734 ft | 127 kts | 85° |
| 2026-05-05 12:24 | 40.16274 | 94.81778 | 3874 ft | 174 kts | 78° |
| 2026-05-05 12:24 | 40.16412 | 94.83302 | 4702 ft | 163 kts | 81° |
| 2026-05-05 12:25 | 40.16496 | 94.84744 | 5240 ft | 161 kts | 82° |
| 2026-05-05 12:25 | 40.16586 | 94.86254 | 5559 ft | 175 kts | 81° |
| 2026-05-05 12:25 | 40.16698 | 94.87901 | 5873 ft | 191 kts | 81° |
| 2026-05-05 12:25 | 40.16826 | 94.89713 | 6214 ft | 209 kts | 81° |
| 2026-05-05 12:26 | 40.16970 | 94.91692 | 6577 ft | 227 kts | 81° |
| 2026-05-05 12:26 | 40.17127 | 94.93800 | 6950 ft | 244 kts | 82° |
| 2026-05-05 12:26 | 40.17297 | 94.96114 | 7336 ft | 262 kts | 82° |
| 2026-05-05 12:26 | 40.17479 | 94.98563 | 7733 ft | 280 kts | 82° |
| 2026-05-05 12:27 | 40.17664 | 95.01138 | 8359 ft | 288 kts | 82° |
| 2026-05-05 12:27 | 40.17853 | 95.03741 | 9144 ft | 290 kts | 82° |
| 2026-05-05 12:27 | 40.17997 | 95.06398 | 9939 ft | 294 kts | 91° |
| 2026-05-05 12:27 | 40.17533 | 95.09029 | 10641 ft | 305 kts | 112° |
| 2026-05-05 12:28 | 40.16290 | 95.11340 | 11102 ft | 325 kts | 136° |
| 2026-05-05 12:28 | 40.14276 | 95.12936 | 11537 ft | 345 kts | 161° |
| 2026-05-05 12:28 | 40.11837 | 95.13437 | 11967 ft | 361 kts | 175° |
| 2026-05-05 12:28 | 40.09236 | 95.13704 | 12355 ft | 380 kts | 175° |
| 2026-05-05 12:29 | 40.06562 | 95.14013 | 12730 ft | 397 kts | 174° |
| 2026-05-05 12:29 | 40.03730 | 95.14368 | 13381 ft | 406 kts | 174° |
| 2026-05-05 12:29 | 40.00918 | 95.14733 | 14221 ft | 408 kts | 174° |
| 2026-05-05 12:29 | 39.98064 | 95.15107 | 15027 ft | 412 kts | 174° |
| 2026-05-05 12:30 | 39.95232 | 95.15642 | 15769 ft | 416 kts | 164° |
| 2026-05-05 12:30 | 39.92634 | 95.17293 | 16503 ft | 420 kts | 143° |
| 2026-05-05 12:30 | 39.90614 | 95.19994 | 17285 ft | 420 kts | 123° |
| 2026-05-05 12:30 | 39.89256 | 95.23360 | 18067 ft | 421 kts | 113° |
| 2026-05-05 12:31 | 39.87999 | 95.26839 | 18720 ft | 427 kts | 114° |
| 2026-05-05 12:31 | 39.86714 | 95.30339 | 19331 ft | 434 kts | 114° |
| 2026-05-05 12:31 | 39.85390 | 95.33892 | 19956 ft | 439 kts | 115° |
| 2026-05-05 12:31 | 39.84034 | 95.37496 | 20605 ft | 444 kts | 115° |
| 2026-05-05 12:32 | 39.82680 | 95.41077 | 21194 ft | 449 kts | 115° |
| 2026-05-05 12:32 | 39.81289 | 95.44748 | 21739 ft | 454 kts | 115° |
| 2026-05-05 12:32 | 39.79892 | 95.48426 | 22297 ft | 459 kts | 116° |
| 2026-05-05 12:32 | 39.78457 | 95.52196 | 22848 ft | 463 kts | 116° |
| 2026-05-05 12:33 | 39.77023 | 95.55960 | 23342 ft | 468 kts | 116° |
| 2026-05-05 12:33 | 39.75593 | 95.59744 | 23820 ft | 473 kts | 116° |
| 2026-05-05 12:33 | 39.74134 | 95.63613 | 24317 ft | 476 kts | 116° |
| 2026-05-05 12:33 | 39.72670 | 95.67497 | 24824 ft | 480 kts | 117° |
| 2026-05-05 12:34 | 39.71180 | 95.71445 | 25294 ft | 483 kts | 117° |
| 2026-05-05 12:34 | 39.69694 | 95.75368 | 25752 ft | 487 kts | 117° |
| 2026-05-05 12:34 | 39.68208 | 95.79293 | 26166 ft | 491 kts | 118° |
| 2026-05-05 12:34 | 39.66673 | 95.83335 | 26564 ft | 496 kts | 117° |
| 2026-05-05 12:35 | 39.65154 | 95.87329 | 26972 ft | 499 kts | 118° |
| 2026-05-05 12:35 | 39.63606 | 95.91388 | 27379 ft | 502 kts | 118° |
| 2026-05-05 12:35 | 39.62064 | 95.95437 | 27848 ft | 503 kts | 118° |
| 2026-05-05 12:35 | 39.60507 | 95.99526 | 28431 ft | 502 kts | 118° |
| 2026-05-05 12:36 | 39.58979 | 96.03532 | 28994 ft | 501 kts | 119° |
| 2026-05-05 12:36 | 39.57432 | 96.07577 | 29495 ft | 501 kts | 119° |
| 2026-05-05 12:36 | 39.55861 | 96.11660 | 30021 ft | 501 kts | 120° |
| 2026-05-05 12:36 | 39.54283 | 96.15686 | 30604 ft | 499 kts | 120° |
| 2026-05-05 12:37 | 39.52719 | 96.19648 | 31169 ft | 498 kts | 121° |
| 2026-05-05 12:37 | 39.51143 | 96.23623 | 31686 ft | 497 kts | 121° |
| 2026-05-05 12:37 | 39.49553 | 96.27635 | 32110 ft | 500 kts | 122° |
| 2026-05-05 12:37 | 39.47959 | 96.31649 | 32262 ft | 507 kts | 121° |
| 2026-05-05 12:38 | 39.46337 | 96.35721 | 32412 ft | 514 kts | 122° |
| 2026-05-05 12:38 | 39.44689 | 96.39867 | 32723 ft | 516 kts | 121° |
| 2026-05-05 12:38 | 39.43070 | 96.43953 | 33222 ft | 508 kts | 122° |
| 2026-05-05 12:38 | 39.41474 | 96.47980 | 33361 ft | 504 kts | 122° |
| 2026-05-05 12:39 | 39.38273 | 96.56004 | 33380 ft | 504 kts | 122° |
| 2026-05-05 12:39 | 39.35082 | 96.63993 | 33390 ft | 502 kts | 122° |
| 2026-05-05 12:40 | 39.31860 | 96.72037 | 33395 ft | 502 kts | 122° |
| 2026-05-05 12:40 | 39.28651 | 96.80035 | 33413 ft | 502 kts | 122° |
| 2026-05-05 12:41 | 39.25446 | 96.88034 | 33433 ft | 502 kts | 122° |
| 2026-05-05 12:41 | 39.22283 | 96.96024 | 33452 ft | 504 kts | 122° |
| 2026-05-05 12:42 | 39.19118 | 97.04016 | 33452 ft | 503 kts | 122° |
| 2026-05-05 12:42 | 39.15924 | 97.12058 | 33462 ft | 503 kts | 121° |
| 2026-05-05 12:43 | 39.12738 | 97.20061 | 33477 ft | 504 kts | 122° |
| 2026-05-05 12:43 | 39.09528 | 97.28105 | 33482 ft | 504 kts | 122° |
| 2026-05-05 12:44 | 39.06328 | 97.36093 | 33491 ft | 504 kts | 122° |
| 2026-05-05 12:44 | 39.03119 | 97.44093 | 33502 ft | 505 kts | 122° |
| 2026-05-05 12:45 | 38.99904 | 97.52087 | 33508 ft | 504 kts | 122° |
| 2026-05-05 12:45 | 38.96666 | 97.60113 | 33508 ft | 505 kts | 121° |
| 2026-05-05 12:46 | 38.93425 | 97.68118 | 33485 ft | 505 kts | 122° |
| 2026-05-05 12:46 | 38.90177 | 97.76097 | 33469 ft | 506 kts | 122° |
| 2026-05-05 12:47 | 38.86903 | 97.84114 | 33479 ft | 506 kts | 122° |
| 2026-05-05 12:47 | 38.83640 | 97.92102 | 33483 ft | 507 kts | 122° |
| 2026-05-05 12:48 | 38.80363 | 98.00098 | 33499 ft | 507 kts | 122° |
| 2026-05-05 12:48 | 38.77078 | 98.08101 | 33496 ft | 507 kts | 122° |
| 2026-05-05 12:49 | 38.73792 | 98.16079 | 33490 ft | 509 kts | 122° |
| 2026-05-05 12:49 | 38.70498 | 98.24065 | 33478 ft | 508 kts | 122° |
| 2026-05-05 12:50 | 38.67191 | 98.32066 | 33480 ft | 509 kts | 122° |
| 2026-05-05 12:50 | 38.63882 | 98.40036 | 33488 ft | 509 kts | 122° |
| 2026-05-05 12:51 | 38.60563 | 98.48014 | 33502 ft | 510 kts | 122° |
| 2026-05-05 12:51 | 38.57218 | 98.56033 | 33493 ft | 509 kts | 122° |
| 2026-05-05 12:52 | 38.53888 | 98.63989 | 33452 ft | 510 kts | 122° |
| 2026-05-05 12:52 | 38.50559 | 98.71941 | 33444 ft | 510 kts | 123° |
| 2026-05-05 12:53 | 38.47272 | 98.79768 | 33451 ft | 509 kts | 123° |
| 2026-05-05 12:53 | 38.43894 | 98.87780 | 33441 ft | 512 kts | 123° |
| 2026-05-05 12:54 | 38.40476 | 98.95850 | 33441 ft | 526 kts | 123° |
| 2026-05-05 12:54 | 38.38730 | 98.99980 | 33435 ft | 521 kts | 123° |
| 2026-05-05 12:55 | 38.35361 | 99.07953 | 33452 ft | 511 kts | 123° |
| 2026-05-05 12:55 | 38.31988 | 99.15900 | 33449 ft | 506 kts | 123° |
| 2026-05-05 12:56 | 38.28607 | 99.23817 | 33444 ft | 512 kts | 123° |
| 2026-05-05 12:56 | 38.25194 | 99.31807 | 33424 ft | 513 kts | 122° |
| 2026-05-05 12:57 | 38.21883 | 99.39545 | 33412 ft | 513 kts | 123° |
| 2026-05-05 12:57 | 38.18459 | 99.47520 | 33418 ft | 512 kts | 123° |
| 2026-05-05 12:58 | 38.15042 | 99.55452 | 33408 ft | 514 kts | 123° |
| 2026-05-05 12:58 | 38.11599 | 99.63431 | 33401 ft | 514 kts | 123° |
| 2026-05-05 12:59 | 38.08200 | 99.71295 | 33424 ft | 514 kts | 123° |
| 2026-05-05 12:59 | 38.04744 | 99.79266 | 33443 ft | 514 kts | 123° |
| 2026-05-05 13:00 | 37.99565 | 99.91165 | 33459 ft | 515 kts | 123° |
| 2026-05-05 13:01 | 37.92645 | 100.07016 | 33458 ft | 517 kts | 123° |
| 2026-05-05 13:01 | 37.89158 | 100.14975 | 33440 ft | 514 kts | 124° |
| 2026-05-05 13:02 | 37.85692 | 100.22853 | 33427 ft | 515 kts | 124° |
| 2026-05-05 13:02 | 37.82214 | 100.30738 | 33415 ft | 517 kts | 124° |
| 2026-05-05 13:03 | 37.78710 | 100.38682 | 33437 ft | 518 kts | 124° |
| 2026-05-05 13:03 | 37.75180 | 100.46656 | 33453 ft | 526 kts | 124° |
| 2026-05-05 13:04 | 37.71609 | 100.54689 | 33451 ft | 543 kts | 124° |
| 2026-05-05 13:04 | 37.67932 | 100.62969 | 33443 ft | 544 kts | 123° |
| 2026-05-05 13:05 | 37.64238 | 100.71344 | 33417 ft | 544 kts | 123° |
| 2026-05-05 13:05 | 37.60694 | 100.79774 | 33416 ft | 547 kts | 122° |
| 2026-05-05 13:06 | 37.57136 | 100.88285 | 33412 ft | 547 kts | 122° |
| 2026-05-05 13:06 | 37.53541 | 100.96803 | 33418 ft | 549 kts | 122° |
| 2026-05-05 13:07 | 37.51167 | 101.02409 | 33413 ft | 549 kts | 122° |
| 2026-05-05 13:07 | 37.49827 | 101.05570 | 33418 ft | 549 kts | 122° |
| 2026-05-05 13:08 | 37.47140 | 101.11897 | 33420 ft | 549 kts | 123° |
| 2026-05-05 13:08 | 37.43547 | 101.20342 | 33429 ft | 547 kts | 122° |
| 2026-05-05 13:09 | 37.39944 | 101.28783 | 33420 ft | 550 kts | 121° |
| 2026-05-05 13:09 | 37.36329 | 101.37246 | 33399 ft | 550 kts | 121° |
| 2026-05-05 13:10 | 37.32719 | 101.45692 | 33389 ft | 551 kts | 120° |
| 2026-05-05 13:10 | 37.29549 | 101.54457 | 33383 ft | 554 kts | 114° |
| 2026-05-05 13:11 | 37.27142 | 101.63644 | 33370 ft | 556 kts | 108° |
| 2026-05-05 13:11 | 37.25031 | 101.73039 | 33375 ft | 557 kts | 108° |
| 2026-05-05 13:12 | 37.22916 | 101.82384 | 33371 ft | 558 kts | 108° |
| 2026-05-05 13:12 | 37.20766 | 101.91756 | 33347 ft | 558 kts | 107° |
| 2026-05-05 13:13 | 37.18610 | 102.01091 | 33343 ft | 557 kts | 107° |
| 2026-05-05 13:13 | 37.16426 | 102.10467 | 33337 ft | 555 kts | 108° |
| 2026-05-05 13:14 | 37.14248 | 102.19805 | 33347 ft | 554 kts | 107° |
| 2026-05-05 13:14 | 37.11673 | 102.29077 | 33356 ft | 555 kts | 114° |
| 2026-05-05 13:15 | 37.08326 | 102.37790 | 33347 ft | 550 kts | 121° |
| 2026-05-05 13:15 | 37.04335 | 102.45995 | 33336 ft | 549 kts | 125° |
| 2026-05-05 13:16 | 37.00245 | 102.54107 | 33324 ft | 549 kts | 124° |
| 2026-05-05 13:16 | 36.96182 | 102.62209 | 33327 ft | 549 kts | 124° |
| 2026-05-05 13:17 | 36.92125 | 102.70309 | 33320 ft | 548 kts | 124° |
| 2026-05-05 13:17 | 36.88071 | 102.78383 | 33323 ft | 548 kts | 124° |
| 2026-05-05 13:18 | 36.84043 | 102.86380 | 33325 ft | 547 kts | 124° |
| 2026-05-05 13:18 | 36.80224 | 102.94705 | 33312 ft | 549 kts | 118° |
| 2026-05-05 13:19 | 36.76896 | 103.03266 | 33300 ft | 548 kts | 117° |
| 2026-05-05 13:19 | 36.73603 | 103.11840 | 33279 ft | 548 kts | 117° |
| 2026-05-05 13:20 | 36.70289 | 103.20390 | 33233 ft | 548 kts | 117° |
| 2026-05-05 13:20 | 36.66953 | 103.28952 | 33219 ft | 551 kts | 117° |
| 2026-05-05 13:21 | 36.63627 | 103.37473 | 33182 ft | 551 kts | 117° |
| 2026-05-05 13:21 | 36.60268 | 103.46062 | 33136 ft | 550 kts | 117° |
| 2026-05-05 13:22 | 36.56962 | 103.54491 | 33104 ft | 551 kts | 117° |
| 2026-05-05 13:22 | 36.53534 | 103.62971 | 33083 ft | 550 kts | 120° |
| 2026-05-05 13:23 | 36.49712 | 103.71212 | 33068 ft | 551 kts | 122° |
| 2026-05-05 13:23 | 36.45825 | 103.79479 | 33063 ft | 549 kts | 122° |
| 2026-05-05 13:24 | 36.41970 | 103.87686 | 33051 ft | 549 kts | 122° |
| 2026-05-05 13:24 | 36.38157 | 103.95803 | 33052 ft | 550 kts | 122° |
| 2026-05-05 13:25 | 36.34308 | 104.03976 | 33052 ft | 551 kts | 122° |
| 2026-05-05 13:25 | 36.30441 | 104.12161 | 33063 ft | 552 kts | 122° |
| 2026-05-05 13:26 | 36.26620 | 104.20233 | 33060 ft | 553 kts | 122° |
| 2026-05-05 13:26 | 36.22076 | 104.27774 | 33070 ft | 547 kts | 140° |
| 2026-05-05 13:27 | 36.19113 | 104.30665 | 33074 ft | 540 kts | 151° |
| 2026-05-05 13:27 | 36.15812 | 104.32845 | 33081 ft | 533 kts | 161° |
| 2026-05-05 13:27 | 36.12359 | 104.34262 | 33076 ft | 526 kts | 172° |
| 2026-05-05 13:27 | 36.08752 | 104.34948 | 33079 ft | 518 kts | 181° |
| 2026-05-05 13:28 | 36.01678 | 104.35059 | 33083 ft | 514 kts | 185° |
| 2026-05-05 13:28 | 35.94464 | 104.35101 | 33084 ft | 515 kts | 185° |
| 2026-05-05 13:29 | 35.87259 | 104.35213 | 33079 ft | 516 kts | 185° |
| 2026-05-05 13:29 | 35.80188 | 104.35337 | 33077 ft | 517 kts | 185° |
| 2026-05-05 13:30 | 35.73152 | 104.35448 | 33077 ft | 517 kts | 185° |
| 2026-05-05 13:30 | 35.66078 | 104.35559 | 33089 ft | 516 kts | 185° |
| 2026-05-05 13:31 | 35.58904 | 104.35676 | 33111 ft | 515 kts | 184° |
| 2026-05-05 13:31 | 35.51728 | 104.35794 | 33130 ft | 516 kts | 184° |
| 2026-05-05 13:32 | 35.44534 | 104.35903 | 33139 ft | 518 kts | 184° |
| 2026-05-05 13:32 | 35.37445 | 104.36015 | 33138 ft | 517 kts | 184° |
| 2026-05-05 13:33 | 35.30358 | 104.36127 | 33138 ft | 518 kts | 185° |
| 2026-05-05 13:33 | 35.23101 | 104.36241 | 33138 ft | 518 kts | 184° |
| 2026-05-05 13:34 | 35.15808 | 104.36359 | 33133 ft | 517 kts | 185° |
| 2026-05-05 13:34 | 35.08513 | 104.36475 | 33132 ft | 518 kts | 185° |
| 2026-05-05 13:35 | 35.01314 | 104.36588 | 33131 ft | 518 kts | 184° |
| 2026-05-05 13:35 | 34.02977 | 104.38450 | 33120 ft | 515 kts | 189° |
| 2026-05-05 13:36 | 33.99412 | 104.38061 | 33249 ft | 510 kts | 190° |
| 2026-05-05 13:36 | 33.95849 | 104.37835 | 33196 ft | 520 kts | 185° |
| 2026-05-05 13:36 | 33.92199 | 104.37958 | 33299 ft | 527 kts | 182° |
| 2026-05-05 13:36 | 33.88572 | 104.38146 | 33582 ft | 509 kts | 182° |
| 2026-05-05 13:37 | 32.12990 | 104.59602 | 33930 ft | 487 kts | 188° |
| 2026-05-05 13:37 | 32.09700 | 104.59039 | 33881 ft | 488 kts | 199° |
| 2026-05-05 13:37 | 32.06468 | 104.57688 | 33588 ft | 492 kts | 211° |
| 2026-05-05 13:37 | 32.03508 | 104.55576 | 33294 ft | 488 kts | 222° |
| 2026-05-05 13:38 | 32.01013 | 104.52831 | 33071 ft | 480 kts | 234° |
| 2026-05-05 13:38 | 31.99099 | 104.49577 | 33073 ft | 475 kts | 245° |
| 2026-05-05 13:38 | 31.97821 | 104.45976 | 33073 ft | 469 kts | 257° |
| 2026-05-05 13:38 | 31.97225 | 104.42162 | 33075 ft | 465 kts | 268° |
| 2026-05-05 13:39 | 31.97339 | 104.38314 | 33081 ft | 463 kts | 279° |
| 2026-05-05 13:39 | 31.98153 | 104.34602 | 33094 ft | 462 kts | 291° |
| 2026-05-05 13:39 | 31.99798 | 104.31373 | 32701 ft | 469 kts | 315° |
| 2026-05-05 13:39 | 32.02402 | 104.29078 | 31811 ft | 466 kts | 321° |
| 2026-05-05 13:40 | 32.05108 | 104.27015 | 32383 ft | 464 kts | 328° |
| 2026-05-05 13:40 | 32.08067 | 104.25466 | 32693 ft | 460 kts | 336° |
| 2026-05-05 13:40 | 32.11185 | 104.24460 | 32208 ft | 465 kts | 345° |
| 2026-05-05 13:40 | 32.14478 | 104.24050 | 31523 ft | 483 kts | 354° |
| 2026-05-05 13:41 | 32.17853 | 104.24309 | 31216 ft | 498 kts | 6° |
| 2026-05-05 13:41 | 32.21127 | 104.25736 | 31203 ft | 515 kts | 25° |
| 2026-05-05 13:41 | 32.23980 | 104.28430 | 31226 ft | 529 kts | 44° |
| 2026-05-05 13:41 | 32.26046 | 104.32058 | 31236 ft | 538 kts | 59° |
| 2026-05-05 13:42 | 32.29335 | 104.39989 | 31046 ft | 531 kts | 61° |
| 2026-05-05 13:42 | 32.30918 | 104.43827 | 30595 ft | 505 kts | 60° |
| 2026-05-05 13:42 | 32.32464 | 104.47484 | 30416 ft | 502 kts | 59° |
| 2026-05-05 13:43 | 32.34054 | 104.51185 | 30166 ft | 501 kts | 60° |
| 2026-05-05 13:43 | 32.35290 | 104.55038 | 29888 ft | 507 kts | 76° |
| 2026-05-05 13:43 | 32.35454 | 104.59197 | 29628 ft | 510 kts | 96° |
| 2026-05-05 13:43 | 32.34464 | 104.63254 | 29370 ft | 510 kts | 116° |
| 2026-05-05 13:44 | 32.32422 | 104.66714 | 29104 ft | 506 kts | 137° |
| 2026-05-05 13:44 | 32.29653 | 104.69169 | 28832 ft | 500 kts | 155° |
| 2026-05-05 13:44 | 32.26378 | 104.70555 | 28402 ft | 493 kts | 173° |
| 2026-05-05 13:44 | 32.22952 | 104.70730 | 27826 ft | 483 kts | 191° |
| 2026-05-05 13:45 | 32.19750 | 104.69752 | 27195 ft | 473 kts | 207° |
| 2026-05-05 13:45 | 32.16917 | 104.67727 | 26565 ft | 461 kts | 223° |
| 2026-05-05 13:45 | 32.14474 | 104.65248 | 26175 ft | 460 kts | 221° |
| 2026-05-05 13:45 | 32.11673 | 104.63318 | 25714 ft | 464 kts | 206° |
| 2026-05-05 13:46 | 32.08416 | 104.62369 | 25217 ft | 468 kts | 188° |
| 2026-05-05 13:46 | 32.05116 | 104.62406 | 24752 ft | 466 kts | 181° |
| 2026-05-05 13:46 | 32.01873 | 104.62563 | 24275 ft | 462 kts | 181° |
| 2026-05-05 13:46 | 31.98631 | 104.62727 | 23810 ft | 458 kts | 180° |
| 2026-05-05 13:47 | 31.95543 | 104.62892 | 23358 ft | 454 kts | 180° |
| 2026-05-05 13:47 | 31.92582 | 104.63055 | 22919 ft | 450 kts | 180° |
| 2026-05-05 13:47 | 31.89418 | 104.63230 | 22467 ft | 445 kts | 180° |
| 2026-05-05 13:47 | 31.86273 | 104.63406 | 21993 ft | 441 kts | 180° |
| 2026-05-05 13:48 | 31.83133 | 104.63581 | 21527 ft | 437 kts | 180° |
| 2026-05-05 13:48 | 31.80100 | 104.63751 | 21065 ft | 434 kts | 180° |
| 2026-05-05 13:48 | 31.77042 | 104.63921 | 20610 ft | 430 kts | 180° |
| 2026-05-05 13:48 | 31.74093 | 104.64099 | 20170 ft | 426 kts | 179° |
| 2026-05-05 13:49 | 31.71134 | 104.64285 | 19724 ft | 422 kts | 179° |
| 2026-05-05 13:49 | 31.68201 | 104.64469 | 19270 ft | 418 kts | 179° |
| 2026-05-05 13:49 | 31.65285 | 104.64651 | 18815 ft | 415 kts | 179° |
| 2026-05-05 13:49 | 31.62409 | 104.64831 | 18368 ft | 411 kts | 179° |
| 2026-05-05 13:50 | 31.59540 | 104.65011 | 17922 ft | 407 kts | 179° |
| 2026-05-05 13:50 | 31.56713 | 104.65187 | 17468 ft | 404 kts | 179° |
| 2026-05-05 13:50 | 31.53924 | 104.65361 | 17034 ft | 400 kts | 179° |
| 2026-05-05 13:50 | 31.51144 | 104.65535 | 16592 ft | 397 kts | 179° |
| 2026-05-05 13:51 | 31.48355 | 104.65713 | 16134 ft | 393 kts | 179° |
| 2026-05-05 13:51 | 31.45628 | 104.65886 | 15687 ft | 389 kts | 179° |
| 2026-05-05 13:51 | 31.42916 | 104.66055 | 15245 ft | 385 kts | 178° |
| 2026-05-05 13:51 | 31.40235 | 104.66221 | 14789 ft | 382 kts | 179° |
| 2026-05-05 13:52 | 31.37598 | 104.66277 | 14353 ft | 378 kts | 181° |
| 2026-05-05 13:52 | 31.34966 | 104.66314 | 13903 ft | 374 kts | 181° |
| 2026-05-05 13:52 | 31.32327 | 104.66350 | 13438 ft | 371 kts | 181° |
| 2026-05-05 13:52 | 31.29733 | 104.66383 | 12976 ft | 368 kts | 181° |
| 2026-05-05 13:53 | 31.27172 | 104.66414 | 12526 ft | 364 kts | 181° |
| 2026-05-05 13:53 | 31.24656 | 104.66259 | 12070 ft | 360 kts | 189° |
| 2026-05-05 13:53 | 31.22291 | 104.65672 | 11692 ft | 357 kts | 197° |
| 2026-05-05 13:53 | 31.19899 | 104.64638 | 11683 ft | 362 kts | 202° |
| 2026-05-05 13:54 | 31.17584 | 104.63498 | 11711 ft | 364 kts | 203° |
| 2026-05-05 13:54 | 31.15215 | 104.62314 | 11738 ft | 364 kts | 203° |
| 2026-05-05 13:54 | 31.12902 | 104.61156 | 11771 ft | 364 kts | 203° |
| 2026-05-05 13:54 | 31.10524 | 104.59967 | 11800 ft | 364 kts | 203° |
| 2026-05-05 13:55 | 31.08195 | 104.58804 | 11827 ft | 365 kts | 203° |
| 2026-05-05 13:55 | 31.05861 | 104.57642 | 11851 ft | 366 kts | 203° |
| 2026-05-05 13:55 | 31.03482 | 104.56458 | 11862 ft | 365 kts | 203° |
| 2026-05-05 13:55 | 31.01153 | 104.55302 | 11865 ft | 365 kts | 203° |
| 2026-05-05 13:56 | 30.98817 | 104.54142 | 11867 ft | 366 kts | 203° |
| 2026-05-05 13:56 | 30.96439 | 104.52962 | 11868 ft | 368 kts | 203° |
| 2026-05-05 13:56 | 30.93985 | 104.51746 | 12106 ft | 388 kts | 203° |
| 2026-05-05 13:56 | 30.91531 | 104.50532 | 12701 ft | 378 kts | 203° |
| 2026-05-05 13:57 | 30.89132 | 104.49341 | 12538 ft | 366 kts | 203° |
| 2026-05-05 13:57 | 30.86785 | 104.48180 | 12155 ft | 363 kts | 203° |
| 2026-05-05 13:57 | 30.84446 | 104.47022 | 11720 ft | 361 kts | 203° |
| 2026-05-05 13:57 | 30.82131 | 104.45877 | 11722 ft | 365 kts | 203° |
| 2026-05-05 13:58 | 30.79765 | 104.44708 | 11744 ft | 365 kts | 203° |
| 2026-05-05 13:58 | 30.77410 | 104.43527 | 11725 ft | 366 kts | 206° |
| 2026-05-05 13:58 | 30.75311 | 104.41885 | 11488 ft | 366 kts | 221° |
| 2026-05-05 13:58 | 30.73459 | 104.39835 | 11165 ft | 362 kts | 223° |
| 2026-05-05 13:59 | 30.69846 | 104.35820 | 10355 ft | 352 kts | 223° |
| 2026-05-05 13:59 | 30.68092 | 104.33875 | 10099 ft | 343 kts | 222° |
| 2026-05-05 14:00 | 30.64836 | 104.30263 | 9565 ft | 293 kts | 222° |
| 2026-05-05 14:00 | 30.63398 | 104.28670 | 9444 ft | 279 kts | 222° |
| 2026-05-05 14:00 | 30.62018 | 104.27145 | 9371 ft | 283 kts | 222° |
| 2026-05-05 14:00 | 30.60589 | 104.25569 | 9247 ft | 280 kts | 222° |
| 2026-05-05 14:01 | 30.59171 | 104.24004 | 9128 ft | 278 kts | 222° |
| 2026-05-05 14:01 | 30.57763 | 104.22451 | 9006 ft | 278 kts | 222° |
| 2026-05-05 14:01 | 30.46329 | 104.11728 | 8946 ft | 277 kts | 222° |
| 2026-05-05 14:01 | 30.42119 | 104.06271 | 8858 ft | 280 kts | 228° |
| 2026-05-05 14:02 | 30.19995 | 103.81150 | 8908 ft | 281 kts | 221° |
| 2026-05-05 14:02 | 30.18611 | 103.79600 | 8741 ft | 283 kts | 222° |
| 2026-05-05 14:02 | 30.17225 | 103.78044 | 8440 ft | 284 kts | 222° |
| 2026-05-05 14:02 | 30.15978 | 103.76331 | 8092 ft | 288 kts | 241° |
| 2026-05-05 14:03 | 30.15511 | 103.74159 | 7774 ft | 292 kts | 270° |
| 2026-05-05 14:03 | 30.16002 | 103.71906 | 7543 ft | 291 kts | 298° |
| 2026-05-05 14:03 | 30.17353 | 103.70174 | 7309 ft | 288 kts | 327° |
| 2026-05-05 14:03 | 30.19217 | 103.69378 | 7055 ft | 285 kts | 355° |
| 2026-05-05 14:04 | 30.21154 | 103.69663 | 6820 ft | 278 kts | 24° |
| 2026-05-05 14:04 | 30.22703 | 103.70875 | 6792 ft | 265 kts | 49° |
| 2026-05-05 14:04 | 30.23619 | 103.72669 | 6774 ft | 252 kts | 75° |
| 2026-05-05 14:04 | 30.23831 | 103.74604 | 6751 ft | 239 kts | 91° |
| 2026-05-05 14:05 | 30.23907 | 103.76492 | 6697 ft | 230 kts | 81° |
| 2026-05-05 14:05 | 30.24427 | 103.78204 | 6635 ft | 223 kts | 59° |
| 2026-05-05 14:05 | 30.25431 | 103.79502 | 6596 ft | 214 kts | 37° |
| 2026-05-05 14:05 | 30.26732 | 103.80312 | 6548 ft | 207 kts | 25° |
| 2026-05-05 14:06 | 30.28086 | 103.80956 | 6372 ft | 207 kts | 22° |
| 2026-05-05 14:06 | 30.29433 | 103.81536 | 6200 ft | 205 kts | 21° |
| 2026-05-05 14:06 | 30.30768 | 103.82111 | 6062 ft | 203 kts | 22° |
| 2026-05-05 14:06 | 30.32105 | 103.82701 | 5930 ft | 202 kts | 22° |
| 2026-05-05 14:07 | 30.33482 | 103.83325 | 5874 ft | 219 kts | 23° |
| 2026-05-05 14:07 | 30.34927 | 103.83992 | 5863 ft | 223 kts | 23° |
| 2026-05-05 14:07 | 30.36387 | 103.84672 | 5654 ft | 225 kts | 23° |
| 2026-05-05 14:07 | 30.37855 | 103.85360 | 5371 ft | 228 kts | 23° |
| 2026-05-05 14:08 | 30.39332 | 103.86053 | 5074 ft | 229 kts | 23° |
| 2026-05-05 14:08 | 30.40808 | 103.86746 | 4748 ft | 223 kts | 22° |
| 2026-05-05 14:08 | 30.42110 | 103.87356 | 4498 ft | 216 kts | 23° |
| 2026-05-05 14:08 | 30.43553 | 103.88030 | 4229 ft | 209 kts | 22° |
| 2026-05-05 14:09 | 30.44893 | 103.88657 | 3977 ft | 203 kts | 23° |
| 2026-05-05 14:09 | 30.46177 | 103.89257 | 3731 ft | 198 kts | 23° |
| 2026-05-05 14:09 | 30.47458 | 103.89855 | 3498 ft | 192 kts | 23° |
| 2026-05-05 14:09 | 30.48685 | 103.90427 | 3265 ft | 187 kts | 23° |
| 2026-05-05 14:10 | 30.49890 | 103.90989 | 3023 ft | 183 kts | 22° |
| 2026-05-05 14:10 | 30.51082 | 103.91545 | 2770 ft | 180 kts | 23° |
| 2026-05-05 14:10 | 30.52216 | 103.92073 | 2528 ft | 170 kts | 22° |
| 2026-05-05 14:10 | 30.53292 | 103.92574 | 2316 ft | 161 kts | 22° |
| 2026-05-05 14:11 | 30.54306 | 103.93044 | 2123 ft | 152 kts | 21° |
| 2026-05-05 14:11 | 30.55287 | 103.93488 | 1932 ft | 144 kts | 23° |
| 2026-05-05 14:11 | 30.56196 | 103.93923 | 1771 ft | 140 kts | 22° |
| 2026-05-05 14:11 | 30.57098 | 103.94341 | 1698 ft | 129 kts | 21° |
| 2026-05-05 14:12 | 30.57777 | 103.94661 | 1698 ft | 78 kts | 21° |
| 2026-05-05 14:12 | 30.58104 | 103.94853 | 1698 ft | 26 kts | 39° |
| 2026-05-05 14:12 | 30.58142 | 103.94890 | 1698 ft | 0 kts | 40° |